sensor_id;sensor_type;location;lat;lon;timestamp;P1;durP1;ratioP1;P2;durP2;ratioP2
57985;SDS011;43788;42.670;23.330;2023-12-04T00:01:31;0.13;;;0.13;;
57985;SDS011;43788;42.670;23.330;2023-12-04T00:03:57;0.30;;;0.30;;
57985;SDS011;43788;42.670;23.330;2023-12-04T00:06:23;0.52;;;0.30;;
57985;SDS011;43788;42.670;23.330;2023-12-04T00:08:48;0.30;;;0.30;;
57985;SDS011;43788;42.670;23.330;2023-12-04T00:11:14;0.35;;;0.30;;
57985;SDS011;43788;42.670;23.330;2023-12-04T00:13:39;0.22;;;0.20;;
57985;SDS011;43788;42.670;23.330;2023-12-04T00:16:05;0.95;;;0.65;;
57985;SDS011;43788;42.670;23.330;2023-12-04T00:18:31;0.30;;;0.10;;
57985;SDS011;43788;42.670;23.330;2023-12-04T00:20:56;0.25;;;0.17;;
57985;SDS011;43788;42.670;23.330;2023-12-04T00:23:22;0.38;;;0.38;;
57985;SDS011;43788;42.670;23.330;2023-12-04T00:25:47;0.30;;;0.30;;
57985;SDS011;43788;42.670;23.330;2023-12-04T00:28:13;0.20;;;0.20;;
57985;SDS011;43788;42.670;23.330;2023-12-04T00:30:38;0.40;;;0.25;;
57985;SDS011;43788;42.670;23.330;2023-12-04T00:33:04;0.43;;;0.22;;
57985;SDS011;43788;42.670;23.330;2023-12-04T00:35:29;0.30;;;0.30;;
57985;SDS011;43788;42.670;23.330;2023-12-04T00:37:55;0.32;;;0.32;;
57985;SDS011;43788;42.670;23.330;2023-12-04T00:40:20;1.55;;;0.45;;
57985;SDS011;43788;42.670;23.330;2023-12-04T00:42:45;0.30;;;0.30;;
57985;SDS011;43788;42.670;23.330;2023-12-04T00:45:11;0.60;;;0.60;;
57985;SDS011;43788;42.670;23.330;2023-12-04T00:47:37;0.20;;;0.20;;
57985;SDS011;43788;42.670;23.330;2023-12-04T00:50:02;0.30;;;0.15;;
57985;SDS011;43788;42.670;23.330;2023-12-04T00:52:28;0.20;;;0.20;;
57985;SDS011;43788;42.670;23.330;2023-12-04T00:54:53;0.20;;;0.20;;
57985;SDS011;43788;42.670;23.330;2023-12-04T00:57:19;0.32;;;0.32;;
57985;SDS011;43788;42.670;23.330;2023-12-04T00:59:44;0.32;;;0.30;;
57985;SDS011;43788;42.670;23.330;2023-12-04T01:02:10;0.40;;;0.32;;
57985;SDS011;43788;42.670;23.330;2023-12-04T01:04:35;0.30;;;0.30;;
57985;SDS011;43788;42.670;23.330;2023-12-04T01:07:01;0.40;;;0.22;;
57985;SDS011;43788;42.670;23.330;2023-12-04T01:09:26;0.03;;;0.03;;
57985;SDS011;43788;42.670;23.330;2023-12-04T01:11:52;0.35;;;0.35;;
57985;SDS011;43788;42.670;23.330;2023-12-04T01:14:18;0.40;;;0.40;;
57985;SDS011;43788;42.670;23.330;2023-12-04T01:16:44;0.30;;;0.30;;
57985;SDS011;43788;42.670;23.330;2023-12-04T01:19:09;0.43;;;0.43;;
57985;SDS011;43788;42.670;23.330;2023-12-04T01:21:35;0.70;;;0.70;;
57985;SDS011;43788;42.670;23.330;2023-12-04T01:24:00;0.40;;;0.30;;
57985;SDS011;43788;42.670;23.330;2023-12-04T01:26:25;0.30;;;0.30;;
57985;SDS011;43788;42.670;23.330;2023-12-04T01:28:51;0.25;;;0.25;;
57985;SDS011;43788;42.670;23.330;2023-12-04T01:31:16;0.03;;;0.03;;
57985;SDS011;43788;42.670;23.330;2023-12-04T01:33:42;0.17;;;0.17;;
57985;SDS011;43788;42.670;23.330;2023-12-04T01:36:10;1.10;;;0.55;;
57985;SDS011;43788;42.670;23.330;2023-12-04T01:38:37;0.20;;;0.20;;
57985;SDS011;43788;42.670;23.330;2023-12-04T01:41:03;0.43;;;0.43;;
57985;SDS011;43788;42.670;23.330;2023-12-04T01:43:28;0.28;;;0.28;;
57985;SDS011;43788;42.670;23.330;2023-12-04T01:45:54;0.60;;;0.55;;
57985;SDS011;43788;42.670;23.330;2023-12-04T01:48:20;0.25;;;0.25;;
57985;SDS011;43788;42.670;23.330;2023-12-04T01:50:49;0.25;;;0.25;;
57985;SDS011;43788;42.670;23.330;2023-12-04T01:53:15;0.30;;;0.30;;
57985;SDS011;43788;42.670;23.330;2023-12-04T01:55:42;0.10;;;0.10;;
57985;SDS011;43788;42.670;23.330;2023-12-04T01:58:11;0.20;;;0.20;;
57985;SDS011;43788;42.670;23.330;2023-12-04T02:00:37;0.30;;;0.30;;
57985;SDS011;43788;42.670;23.330;2023-12-04T02:03:04;0.15;;;0.15;;
57985;SDS011;43788;42.670;23.330;2023-12-04T02:05:29;0.47;;;0.35;;
57985;SDS011;43788;42.670;23.330;2023-12-04T02:07:56;0.50;;;0.43;;
57985;SDS011;43788;42.670;23.330;2023-12-04T02:10:22;0.43;;;0.43;;
57985;SDS011;43788;42.670;23.330;2023-12-04T02:12:48;0.20;;;0.20;;
57985;SDS011;43788;42.670;23.330;2023-12-04T02:15:14;0.40;;;0.40;;
57985;SDS011;43788;42.670;23.330;2023-12-04T02:17:40;0.38;;;0.35;;
57985;SDS011;43788;42.670;23.330;2023-12-04T02:20:07;0.28;;;0.28;;
57985;SDS011;43788;42.670;23.330;2023-12-04T02:22:33;0.20;;;0.20;;
57985;SDS011;43788;42.670;23.330;2023-12-04T02:24:59;0.00;;;0.00;;
57985;SDS011;43788;42.670;23.330;2023-12-04T02:27:26;0.30;;;0.30;;
57985;SDS011;43788;42.670;23.330;2023-12-04T02:29:58;0.38;;;0.38;;
57985;SDS011;43788;42.670;23.330;2023-12-04T02:32:24;0.35;;;0.35;;
57985;SDS011;43788;42.670;23.330;2023-12-04T02:34:53;0.38;;;0.22;;
57985;SDS011;43788;42.670;23.330;2023-12-04T02:37:23;0.88;;;0.43;;
57985;SDS011;43788;42.670;23.330;2023-12-04T02:39:49;0.15;;;0.15;;
57985;SDS011;43788;42.670;23.330;2023-12-04T02:42:18;0.17;;;0.17;;
57985;SDS011;43788;42.670;23.330;2023-12-04T02:44:44;0.25;;;0.25;;
57985;SDS011;43788;42.670;23.330;2023-12-04T02:47:09;0.10;;;0.10;;
57985;SDS011;43788;42.670;23.330;2023-12-04T02:49:35;0.43;;;0.38;;
57985;SDS011;43788;42.670;23.330;2023-12-04T02:52:00;0.20;;;0.20;;
57985;SDS011;43788;42.670;23.330;2023-12-04T02:54:27;0.63;;;0.40;;
57985;SDS011;43788;42.670;23.330;2023-12-04T02:56:53;0.30;;;0.30;;
57985;SDS011;43788;42.670;23.330;2023-12-04T02:59:18;4.03;;;0.65;;
57985;SDS011;43788;42.670;23.330;2023-12-04T03:01:44;0.20;;;0.20;;
57985;SDS011;43788;42.670;23.330;2023-12-04T03:04:09;0.17;;;0.17;;
57985;SDS011;43788;42.670;23.330;2023-12-04T03:06:35;0.60;;;0.60;;
57985;SDS011;43788;42.670;23.330;2023-12-04T03:09:00;0.68;;;0.38;;
57985;SDS011;43788;42.670;23.330;2023-12-04T03:11:28;0.35;;;0.35;;
57985;SDS011;43788;42.670;23.330;2023-12-04T03:13:54;0.20;;;0.20;;
57985;SDS011;43788;42.670;23.330;2023-12-04T03:16:20;0.57;;;0.40;;
57985;SDS011;43788;42.670;23.330;2023-12-04T03:18:45;0.45;;;0.22;;
57985;SDS011;43788;42.670;23.330;2023-12-04T03:21:11;0.52;;;0.30;;
57985;SDS011;43788;42.670;23.330;2023-12-04T03:23:36;0.20;;;0.20;;
57985;SDS011;43788;42.670;23.330;2023-12-04T03:26:02;0.32;;;0.25;;
57985;SDS011;43788;42.670;23.330;2023-12-04T03:28:28;0.30;;;0.30;;
57985;SDS011;43788;42.670;23.330;2023-12-04T03:30:53;0.45;;;0.45;;
57985;SDS011;43788;42.670;23.330;2023-12-04T03:33:19;0.52;;;0.50;;
57985;SDS011;43788;42.670;23.330;2023-12-04T03:35:45;0.40;;;0.30;;
57985;SDS011;43788;42.670;23.330;2023-12-04T03:38:10;0.20;;;0.20;;
57985;SDS011;43788;42.670;23.330;2023-12-04T03:40:36;0.10;;;0.10;;
57985;SDS011;43788;42.670;23.330;2023-12-04T03:43:01;0.25;;;0.20;;
57985;SDS011;43788;42.670;23.330;2023-12-04T03:45:26;0.20;;;0.20;;
57985;SDS011;43788;42.670;23.330;2023-12-04T03:47:52;0.30;;;0.30;;
57985;SDS011;43788;42.670;23.330;2023-12-04T03:50:18;0.40;;;0.40;;
57985;SDS011;43788;42.670;23.330;2023-12-04T03:52:43;0.10;;;0.10;;
57985;SDS011;43788;42.670;23.330;2023-12-04T03:55:08;0.55;;;0.45;;
57985;SDS011;43788;42.670;23.330;2023-12-04T03:57:34;0.40;;;0.30;;
57985;SDS011;43788;42.670;23.330;2023-12-04T03:59:59;0.55;;;0.50;;
57985;SDS011;43788;42.670;23.330;2023-12-04T04:02:25;0.10;;;0.10;;
57985;SDS011;43788;42.670;23.330;2023-12-04T04:04:50;0.20;;;0.20;;
57985;SDS011;43788;42.670;23.330;2023-12-04T04:07:16;0.35;;;0.30;;
57985;SDS011;43788;42.670;23.330;2023-12-04T04:09:42;0.60;;;0.52;;
57985;SDS011;43788;42.670;23.330;2023-12-04T04:12:08;0.32;;;0.32;;
57985;SDS011;43788;42.670;23.330;2023-12-04T04:14:34;0.08;;;0.08;;
57985;SDS011;43788;42.670;23.330;2023-12-04T04:16:59;0.45;;;0.25;;
57985;SDS011;43788;42.670;23.330;2023-12-04T04:19:25;0.20;;;0.20;;
57985;SDS011;43788;42.670;23.330;2023-12-04T04:21:50;0.30;;;0.30;;
57985;SDS011;43788;42.670;23.330;2023-12-04T04:24:16;0.40;;;0.35;;
57985;SDS011;43788;42.670;23.330;2023-12-04T04:26:41;0.25;;;0.22;;
57985;SDS011;43788;42.670;23.330;2023-12-04T04:29:06;0.28;;;0.28;;
57985;SDS011;43788;42.670;23.330;2023-12-04T04:31:32;0.25;;;0.20;;
57985;SDS011;43788;42.670;23.330;2023-12-04T04:33:57;0.22;;;0.22;;
57985;SDS011;43788;42.670;23.330;2023-12-04T04:36:23;0.77;;;0.70;;
57985;SDS011;43788;42.670;23.330;2023-12-04T04:38:48;0.22;;;0.20;;
57985;SDS011;43788;42.670;23.330;2023-12-04T04:41:14;0.17;;;0.17;;
57985;SDS011;43788;42.670;23.330;2023-12-04T04:43:41;0.20;;;0.20;;
57985;SDS011;43788;42.670;23.330;2023-12-04T04:46:07;0.20;;;0.20;;
57985;SDS011;43788;42.670;23.330;2023-12-04T04:48:32;0.40;;;0.30;;
57985;SDS011;43788;42.670;23.330;2023-12-04T04:50:58;0.13;;;0.10;;
57985;SDS011;43788;42.670;23.330;2023-12-04T04:53:23;0.93;;;0.68;;
57985;SDS011;43788;42.670;23.330;2023-12-04T04:55:48;0.13;;;0.13;;
57985;SDS011;43788;42.670;23.330;2023-12-04T04:58:14;0.40;;;0.40;;
57985;SDS011;43788;42.670;23.330;2023-12-04T05:00:40;0.22;;;0.22;;
57985;SDS011;43788;42.670;23.330;2023-12-04T05:03:05;0.63;;;0.55;;
57985;SDS011;43788;42.670;23.330;2023-12-04T05:05:31;0.28;;;0.28;;
57985;SDS011;43788;42.670;23.330;2023-12-04T05:07:56;0.32;;;0.20;;
57985;SDS011;43788;42.670;23.330;2023-12-04T05:10:21;0.20;;;0.20;;
57985;SDS011;43788;42.670;23.330;2023-12-04T05:12:50;0.25;;;0.25;;
57985;SDS011;43788;42.670;23.330;2023-12-04T05:15:51;0.25;;;0.25;;
57985;SDS011;43788;42.670;23.330;2023-12-04T05:18:47;0.10;;;0.10;;
57985;SDS011;43788;42.670;23.330;2023-12-04T05:21:47;0.30;;;0.20;;
57985;SDS011;43788;42.670;23.330;2023-12-04T05:24:28;0.20;;;0.20;;
57985;SDS011;43788;42.670;23.330;2023-12-04T05:31:34;0.45;;;0.28;;
57985;SDS011;43788;42.670;23.330;2023-12-04T05:35:36;0.20;;;0.20;;
57985;SDS011;43788;42.670;23.330;2023-12-04T05:38:42;0.20;;;0.20;;
57985;SDS011;43788;42.670;23.330;2023-12-04T05:41:47;0.38;;;0.25;;
57985;SDS011;43788;42.670;23.330;2023-12-04T05:44:26;0.00;;;0.00;;
57985;SDS011;43788;42.670;23.330;2023-12-04T05:46:57;0.43;;;0.43;;
57985;SDS011;43788;42.670;23.330;2023-12-04T05:49:31;0.50;;;0.45;;
57985;SDS011;43788;42.670;23.330;2023-12-04T05:52:25;0.30;;;0.30;;
57985;SDS011;43788;42.670;23.330;2023-12-04T05:54:57;0.25;;;0.25;;
57985;SDS011;43788;42.670;23.330;2023-12-04T05:57:38;0.22;;;0.22;;
57985;SDS011;43788;42.670;23.330;2023-12-04T06:00:28;0.20;;;0.20;;
57985;SDS011;43788;42.670;23.330;2023-12-04T06:02:54;0.93;;;0.82;;
57985;SDS011;43788;42.670;23.330;2023-12-04T06:06:00;0.13;;;0.13;;
57985;SDS011;43788;42.670;23.330;2023-12-04T06:08:26;0.03;;;0.03;;
57985;SDS011;43788;42.670;23.330;2023-12-04T06:10:53;0.40;;;0.28;;
57985;SDS011;43788;42.670;23.330;2023-12-04T06:13:18;0.20;;;0.20;;
57985;SDS011;43788;42.670;23.330;2023-12-04T06:15:44;0.30;;;0.30;;
57985;SDS011;43788;42.670;23.330;2023-12-04T06:18:09;0.10;;;0.10;;
57985;SDS011;43788;42.670;23.330;2023-12-04T06:20:35;0.43;;;0.43;;
57985;SDS011;43788;42.670;23.330;2023-12-04T06:23:00;0.25;;;0.25;;
57985;SDS011;43788;42.670;23.330;2023-12-04T06:25:26;0.05;;;0.05;;
57985;SDS011;43788;42.670;23.330;2023-12-04T06:27:52;0.32;;;0.32;;
57985;SDS011;43788;42.670;23.330;2023-12-04T06:30:18;0.57;;;0.57;;
57985;SDS011;43788;42.670;23.330;2023-12-04T06:32:44;0.10;;;0.10;;
57985;SDS011;43788;42.670;23.330;2023-12-04T06:35:10;0.43;;;0.43;;
57985;SDS011;43788;42.670;23.330;2023-12-04T06:37:37;0.10;;;0.10;;
57985;SDS011;43788;42.670;23.330;2023-12-04T06:40:03;0.28;;;0.28;;
57985;SDS011;43788;42.670;23.330;2023-12-04T06:42:29;0.38;;;0.30;;
57985;SDS011;43788;42.670;23.330;2023-12-04T06:44:55;0.75;;;0.43;;
57985;SDS011;43788;42.670;23.330;2023-12-04T06:47:22;0.63;;;0.28;;
57985;SDS011;43788;42.670;23.330;2023-12-04T06:49:48;0.43;;;0.40;;
57985;SDS011;43788;42.670;23.330;2023-12-04T06:52:14;0.32;;;0.32;;
57985;SDS011;43788;42.670;23.330;2023-12-04T06:54:39;0.90;;;0.68;;
57985;SDS011;43788;42.670;23.330;2023-12-04T06:57:06;0.25;;;0.25;;
57985;SDS011;43788;42.670;23.330;2023-12-04T06:59:31;0.50;;;0.30;;
57985;SDS011;43788;42.670;23.330;2023-12-04T07:01:57;0.30;;;0.30;;
57985;SDS011;43788;42.670;23.330;2023-12-04T07:04:23;0.20;;;0.20;;
57985;SDS011;43788;42.670;23.330;2023-12-04T07:06:48;0.60;;;0.45;;
57985;SDS011;43788;42.670;23.330;2023-12-04T07:09:15;0.65;;;0.45;;
57985;SDS011;43788;42.670;23.330;2023-12-04T07:11:42;0.40;;;0.40;;
57985;SDS011;43788;42.670;23.330;2023-12-04T07:14:07;0.60;;;0.52;;
57985;SDS011;43788;42.670;23.330;2023-12-04T07:16:38;0.50;;;0.50;;
57985;SDS011;43788;42.670;23.330;2023-12-04T07:19:06;0.55;;;0.32;;
57985;SDS011;43788;42.670;23.330;2023-12-04T07:21:31;0.40;;;0.30;;
57985;SDS011;43788;42.670;23.330;2023-12-04T07:23:56;0.40;;;0.40;;
57985;SDS011;43788;42.670;23.330;2023-12-04T07:26:23;0.75;;;0.38;;
57985;SDS011;43788;42.670;23.330;2023-12-04T07:28:49;0.73;;;0.70;;
57985;SDS011;43788;42.670;23.330;2023-12-04T07:31:16;0.38;;;0.38;;
57985;SDS011;43788;42.670;23.330;2023-12-04T07:33:41;0.30;;;0.30;;
57985;SDS011;43788;42.670;23.330;2023-12-04T07:36:07;0.75;;;0.52;;
57985;SDS011;43788;42.670;23.330;2023-12-04T07:38:33;0.50;;;0.50;;
57985;SDS011;43788;42.670;23.330;2023-12-04T07:40:58;0.32;;;0.30;;
57985;SDS011;43788;42.670;23.330;2023-12-04T07:46:54;0.20;;;0.20;;
57985;SDS011;43788;42.670;23.330;2023-12-04T07:49:22;0.28;;;0.28;;
57985;SDS011;43788;42.670;23.330;2023-12-04T07:51:48;0.55;;;0.50;;
57985;SDS011;43788;42.670;23.330;2023-12-04T07:54:13;0.52;;;0.43;;
57985;SDS011;43788;42.670;23.330;2023-12-04T07:56:39;0.20;;;0.20;;
57985;SDS011;43788;42.670;23.330;2023-12-04T07:59:05;0.40;;;0.25;;
57985;SDS011;43788;42.670;23.330;2023-12-04T08:01:30;0.28;;;0.25;;
57985;SDS011;43788;42.670;23.330;2023-12-04T08:03:56;0.20;;;0.20;;
57985;SDS011;43788;42.670;23.330;2023-12-04T08:06:22;0.32;;;0.30;;
57985;SDS011;43788;42.670;23.330;2023-12-04T08:08:48;0.28;;;0.28;;
57985;SDS011;43788;42.670;23.330;2023-12-04T08:11:14;0.52;;;0.45;;
57985;SDS011;43788;42.670;23.330;2023-12-04T08:13:39;0.52;;;0.40;;
57985;SDS011;43788;42.670;23.330;2023-12-04T08:16:05;0.17;;;0.17;;
57985;SDS011;43788;42.670;23.330;2023-12-04T08:18:40;0.38;;;0.38;;
57985;SDS011;43788;42.670;23.330;2023-12-04T08:21:15;0.20;;;0.20;;
57985;SDS011;43788;42.670;23.330;2023-12-04T08:23:44;0.10;;;0.10;;
57985;SDS011;43788;42.670;23.330;2023-12-04T08:26:26;0.63;;;0.20;;
57985;SDS011;43788;42.670;23.330;2023-12-04T08:28:57;0.10;;;0.10;;
57985;SDS011;43788;42.670;23.330;2023-12-04T08:31:29;0.40;;;0.40;;
57985;SDS011;43788;42.670;23.330;2023-12-04T08:34:17;0.30;;;0.30;;
57985;SDS011;43788;42.670;23.330;2023-12-04T08:36:49;0.35;;;0.28;;
57985;SDS011;43788;42.670;23.330;2023-12-04T08:39:35;0.10;;;0.10;;
57985;SDS011;43788;42.670;23.330;2023-12-04T08:42:12;0.20;;;0.20;;
57985;SDS011;43788;42.670;23.330;2023-12-04T08:44:50;0.30;;;0.30;;
57985;SDS011;43788;42.670;23.330;2023-12-04T08:47:31;0.10;;;0.10;;
57985;SDS011;43788;42.670;23.330;2023-12-04T08:50:06;0.30;;;0.30;;
57985;SDS011;43788;42.670;23.330;2023-12-04T08:53:17;0.20;;;0.20;;
57985;SDS011;43788;42.670;23.330;2023-12-04T08:55:44;0.30;;;0.20;;
57985;SDS011;43788;42.670;23.330;2023-12-04T08:58:10;0.22;;;0.22;;
57985;SDS011;43788;42.670;23.330;2023-12-04T09:00:39;0.47;;;0.35;;
57985;SDS011;43788;42.670;23.330;2023-12-04T09:03:08;0.10;;;0.10;;
57985;SDS011;43788;42.670;23.330;2023-12-04T09:05:35;0.43;;;0.43;;
57985;SDS011;43788;42.670;23.330;2023-12-04T09:08:03;0.10;;;0.10;;
57985;SDS011;43788;42.670;23.330;2023-12-04T09:10:29;0.32;;;0.32;;
57985;SDS011;43788;42.670;23.330;2023-12-04T09:12:54;0.22;;;0.22;;
57985;SDS011;43788;42.670;23.330;2023-12-04T09:15:20;0.10;;;0.10;;
57985;SDS011;43788;42.670;23.330;2023-12-04T09:17:45;0.38;;;0.30;;
57985;SDS011;43788;42.670;23.330;2023-12-04T09:20:11;0.43;;;0.40;;
57985;SDS011;43788;42.670;23.330;2023-12-04T09:22:36;0.30;;;0.30;;
57985;SDS011;43788;42.670;23.330;2023-12-04T09:25:05;11.98;;;0.65;;
57985;SDS011;43788;42.670;23.330;2023-12-04T09:27:31;0.10;;;0.10;;
57985;SDS011;43788;42.670;23.330;2023-12-04T09:29:56;0.17;;;0.17;;
57985;SDS011;43788;42.670;23.330;2023-12-04T09:32:22;0.70;;;0.50;;
57985;SDS011;43788;42.670;23.330;2023-12-04T09:34:49;1.13;;;0.30;;
57985;SDS011;43788;42.670;23.330;2023-12-04T09:38:00;0.10;;;0.10;;
57985;SDS011;43788;42.670;23.330;2023-12-04T09:43:30;0.65;;;0.30;;
57985;SDS011;43788;42.670;23.330;2023-12-04T09:45:57;0.35;;;0.30;;
57985;SDS011;43788;42.670;23.330;2023-12-04T09:48:27;0.00;;;0.00;;
57985;SDS011;43788;42.670;23.330;2023-12-04T09:50:54;0.20;;;0.20;;
57985;SDS011;43788;42.670;23.330;2023-12-04T09:53:20;0.25;;;0.25;;
57985;SDS011;43788;42.670;23.330;2023-12-04T09:55:49;0.17;;;0.17;;
57985;SDS011;43788;42.670;23.330;2023-12-04T09:58:15;0.20;;;0.20;;
57985;SDS011;43788;42.670;23.330;2023-12-04T10:00:41;0.35;;;0.30;;
57985;SDS011;43788;42.670;23.330;2023-12-04T10:03:09;0.32;;;0.25;;
57985;SDS011;43788;42.670;23.330;2023-12-04T10:05:35;0.30;;;0.30;;
57985;SDS011;43788;42.670;23.330;2023-12-04T10:08:01;0.35;;;0.25;;
57985;SDS011;43788;42.670;23.330;2023-12-04T10:10:26;0.40;;;0.25;;
57985;SDS011;43788;42.670;23.330;2023-12-04T10:12:52;0.20;;;0.20;;
57985;SDS011;43788;42.670;23.330;2023-12-04T10:15:17;0.30;;;0.20;;
57985;SDS011;43788;42.670;23.330;2023-12-04T10:17:43;0.47;;;0.47;;
57985;SDS011;43788;42.670;23.330;2023-12-04T10:20:11;0.40;;;0.30;;
57985;SDS011;43788;42.670;23.330;2023-12-04T10:22:54;0.40;;;0.40;;
57985;SDS011;43788;42.670;23.330;2023-12-04T10:25:59;0.40;;;0.30;;
57985;SDS011;43788;42.670;23.330;2023-12-04T10:28:27;0.15;;;0.15;;
57985;SDS011;43788;42.670;23.330;2023-12-04T10:30:53;0.10;;;0.10;;
57985;SDS011;43788;42.670;23.330;2023-12-04T10:33:19;1.83;;;0.40;;
57985;SDS011;43788;42.670;23.330;2023-12-04T10:35:46;0.35;;;0.30;;
57985;SDS011;43788;42.670;23.330;2023-12-04T10:38:12;0.40;;;0.35;;
57985;SDS011;43788;42.670;23.330;2023-12-04T10:40:40;0.30;;;0.30;;
57985;SDS011;43788;42.670;23.330;2023-12-04T10:43:14;0.20;;;0.20;;
57985;SDS011;43788;42.670;23.330;2023-12-04T10:45:41;0.20;;;0.20;;
57985;SDS011;43788;42.670;23.330;2023-12-04T10:48:09;0.30;;;0.30;;
57985;SDS011;43788;42.670;23.330;2023-12-04T10:50:37;0.35;;;0.35;;
57985;SDS011;43788;42.670;23.330;2023-12-04T10:53:05;0.40;;;0.40;;
57985;SDS011;43788;42.670;23.330;2023-12-04T10:55:35;4.70;;;0.40;;
57985;SDS011;43788;42.670;23.330;2023-12-04T10:58:02;0.35;;;0.30;;
57985;SDS011;43788;42.670;23.330;2023-12-04T11:00:32;0.20;;;0.20;;
57985;SDS011;43788;42.670;23.330;2023-12-04T11:03:00;0.35;;;0.35;;
57985;SDS011;43788;42.670;23.330;2023-12-04T11:05:29;0.40;;;0.35;;
57985;SDS011;43788;42.670;23.330;2023-12-04T11:07:57;0.22;;;0.22;;
57985;SDS011;43788;42.670;23.330;2023-12-04T11:10:24;0.93;;;0.28;;
57985;SDS011;43788;42.670;23.330;2023-12-04T11:12:56;0.30;;;0.30;;
57985;SDS011;43788;42.670;23.330;2023-12-04T11:15:24;0.28;;;0.28;;
57985;SDS011;43788;42.670;23.330;2023-12-04T11:17:58;0.52;;;0.32;;
57985;SDS011;43788;42.670;23.330;2023-12-04T11:20:39;0.38;;;0.38;;
57985;SDS011;43788;42.670;23.330;2023-12-04T11:23:25;0.32;;;0.30;;
57985;SDS011;43788;42.670;23.330;2023-12-04T11:25:54;0.40;;;0.40;;
57985;SDS011;43788;42.670;23.330;2023-12-04T11:28:32;1.27;;;0.50;;
57985;SDS011;43788;42.670;23.330;2023-12-04T11:30:58;0.60;;;0.60;;
57985;SDS011;43788;42.670;23.330;2023-12-04T11:33:37;0.73;;;0.57;;
57985;SDS011;43788;42.670;23.330;2023-12-04T11:36:07;0.70;;;0.70;;
57985;SDS011;43788;42.670;23.330;2023-12-04T11:38:45;0.57;;;0.53;;
57985;SDS011;43788;42.670;23.330;2023-12-04T11:41:43;0.57;;;0.43;;
57985;SDS011;43788;42.670;23.330;2023-12-04T11:44:12;0.30;;;0.30;;
57985;SDS011;43788;42.670;23.330;2023-12-04T11:47:06;0.43;;;0.43;;
57985;SDS011;43788;42.670;23.330;2023-12-04T11:49:34;0.50;;;0.50;;
57985;SDS011;43788;42.670;23.330;2023-12-04T11:52:03;0.70;;;0.40;;
57985;SDS011;43788;42.670;23.330;2023-12-04T11:55:05;0.30;;;0.30;;
57985;SDS011;43788;42.670;23.330;2023-12-04T11:57:30;0.63;;;0.63;;
57985;SDS011;43788;42.670;23.330;2023-12-04T12:00:07;1.98;;;1.10;;
57985;SDS011;43788;42.670;23.330;2023-12-04T12:02:38;0.60;;;0.60;;
57985;SDS011;43788;42.670;23.330;2023-12-04T12:05:05;0.60;;;0.60;;
57985;SDS011;43788;42.670;23.330;2023-12-04T12:07:33;0.60;;;0.60;;
57985;SDS011;43788;42.670;23.330;2023-12-04T12:09:58;0.30;;;0.30;;
57985;SDS011;43788;42.670;23.330;2023-12-04T12:12:27;0.43;;;0.43;;
57985;SDS011;43788;42.670;23.330;2023-12-04T12:14:57;0.30;;;0.30;;
57985;SDS011;43788;42.670;23.330;2023-12-04T12:17:26;0.60;;;0.60;;
57985;SDS011;43788;42.670;23.330;2023-12-04T12:20:05;0.43;;;0.43;;
57985;SDS011;43788;42.670;23.330;2023-12-04T12:22:32;0.35;;;0.35;;
57985;SDS011;43788;42.670;23.330;2023-12-04T12:24:59;0.30;;;0.30;;
57985;SDS011;43788;42.670;23.330;2023-12-04T12:27:25;0.75;;;0.40;;
57985;SDS011;43788;42.670;23.330;2023-12-04T12:29:51;0.47;;;0.45;;
57985;SDS011;43788;42.670;23.330;2023-12-04T12:32:16;0.50;;;0.50;;
57985;SDS011;43788;42.670;23.330;2023-12-04T12:34:54;0.30;;;0.30;;
57985;SDS011;43788;42.670;23.330;2023-12-04T12:37:29;0.35;;;0.35;;
57985;SDS011;43788;42.670;23.330;2023-12-04T12:40:15;0.40;;;0.40;;
57985;SDS011;43788;42.670;23.330;2023-12-04T12:46:18;0.68;;;0.68;;
57985;SDS011;43788;42.670;23.330;2023-12-04T12:48:51;6.93;;;0.80;;
57985;SDS011;43788;42.670;23.330;2023-12-04T12:51:18;0.45;;;0.45;;
57985;SDS011;43788;42.670;23.330;2023-12-04T12:53:52;0.60;;;0.60;;
57985;SDS011;43788;42.670;23.330;2023-12-04T12:56:19;0.73;;;0.52;;
57985;SDS011;43788;42.670;23.330;2023-12-04T12:59:13;0.50;;;0.50;;
57985;SDS011;43788;42.670;23.330;2023-12-04T13:02:11;0.30;;;0.30;;
57985;SDS011;43788;42.670;23.330;2023-12-04T13:04:53;0.50;;;0.40;;
57985;SDS011;43788;42.670;23.330;2023-12-04T13:07:19;3.20;;;0.88;;
57985;SDS011;43788;42.670;23.330;2023-12-04T13:09:49;0.50;;;0.50;;
57985;SDS011;43788;42.670;23.330;2023-12-04T13:12:20;4.72;;;3.25;;
57985;SDS011;43788;42.670;23.330;2023-12-04T13:14:50;2.35;;;1.58;;
57985;SDS011;43788;42.670;23.330;2023-12-04T13:17:18;1.08;;;0.90;;
57985;SDS011;43788;42.670;23.330;2023-12-04T13:19:44;1.10;;;0.70;;
57985;SDS011;43788;42.670;23.330;2023-12-04T13:22:12;0.80;;;0.75;;
57985;SDS011;43788;42.670;23.330;2023-12-04T13:24:41;1.05;;;0.90;;
57985;SDS011;43788;42.670;23.330;2023-12-04T13:27:07;0.68;;;0.68;;
57985;SDS011;43788;42.670;23.330;2023-12-04T13:29:42;1.30;;;1.05;;
57985;SDS011;43788;42.670;23.330;2023-12-04T13:32:16;1.75;;;0.80;;
57985;SDS011;43788;42.670;23.330;2023-12-04T13:34:42;0.93;;;0.82;;
57985;SDS011;43788;42.670;23.330;2023-12-04T13:37:07;1.23;;;1.13;;
57985;SDS011;43788;42.670;23.330;2023-12-04T13:39:33;1.15;;;0.90;;
57985;SDS011;43788;42.670;23.330;2023-12-04T13:42:13;0.70;;;0.70;;
57985;SDS011;43788;42.670;23.330;2023-12-04T13:44:52;2.80;;;0.95;;
57985;SDS011;43788;42.670;23.330;2023-12-04T13:47:21;1.48;;;1.38;;
57985;SDS011;43788;42.670;23.330;2023-12-04T13:49:46;1.48;;;0.80;;
57985;SDS011;43788;42.670;23.330;2023-12-04T13:52:12;0.65;;;0.60;;
57985;SDS011;43788;42.670;23.330;2023-12-04T13:54:38;1.55;;;0.90;;
57985;SDS011;43788;42.670;23.330;2023-12-04T13:57:12;1.23;;;0.85;;
57985;SDS011;43788;42.670;23.330;2023-12-04T13:59:46;0.60;;;0.60;;
57985;SDS011;43788;42.670;23.330;2023-12-04T14:02:12;1.17;;;1.00;;
57985;SDS011;43788;42.670;23.330;2023-12-04T14:04:38;0.88;;;0.80;;
57985;SDS011;43788;42.670;23.330;2023-12-04T14:07:04;0.82;;;0.82;;
57985;SDS011;43788;42.670;23.330;2023-12-04T14:09:30;0.70;;;0.70;;
57985;SDS011;43788;42.670;23.330;2023-12-04T14:11:57;1.15;;;0.90;;
57985;SDS011;43788;42.670;23.330;2023-12-04T14:14:23;8.85;;;1.13;;
57985;SDS011;43788;42.670;23.330;2023-12-04T14:16:48;0.90;;;0.77;;
57985;SDS011;43788;42.670;23.330;2023-12-04T14:19:14;1.00;;;0.90;;
57985;SDS011;43788;42.670;23.330;2023-12-04T14:21:42;1.17;;;1.08;;
57985;SDS011;43788;42.670;23.330;2023-12-04T14:24:07;1.00;;;0.90;;
57985;SDS011;43788;42.670;23.330;2023-12-04T14:26:33;3.13;;;0.77;;
57985;SDS011;43788;42.670;23.330;2023-12-04T14:28:58;4.47;;;2.85;;
57985;SDS011;43788;42.670;23.330;2023-12-04T14:31:26;3.03;;;2.13;;
57985;SDS011;43788;42.670;23.330;2023-12-04T14:33:51;1.50;;;1.30;;
57985;SDS011;43788;42.670;23.330;2023-12-04T14:36:18;0.95;;;0.77;;
57985;SDS011;43788;42.670;23.330;2023-12-04T14:38:45;1.45;;;0.80;;
57985;SDS011;43788;42.670;23.330;2023-12-04T14:41:12;5.88;;;3.95;;
57985;SDS011;43788;42.670;23.330;2023-12-04T14:43:38;7.25;;;5.28;;
57985;SDS011;43788;42.670;23.330;2023-12-04T14:46:04;4.90;;;1.77;;
57985;SDS011;43788;42.670;23.330;2023-12-04T14:48:35;2.78;;;0.80;;
57985;SDS011;43788;42.670;23.330;2023-12-04T14:51:02;3.10;;;1.25;;
57985;SDS011;43788;42.670;23.330;2023-12-04T14:53:31;1.10;;;0.98;;
57985;SDS011;43788;42.670;23.330;2023-12-04T14:56:09;1.33;;;0.80;;
57985;SDS011;43788;42.670;23.330;2023-12-04T14:58:45;1.65;;;1.05;;
57985;SDS011;43788;42.670;23.330;2023-12-04T15:01:31;2.08;;;1.10;;